Time;durP1;ratioP1;P1;durP2;ratioP2;P2;SDS_P1;SDS_P2;PMS_P1;PMS_P2;Temp;Humidity;BMP_temperature;BMP_pressure;BME280_temperature;BME280_humidity;BME280_pressure;Samples;Min_cycle;Max_cycle;Signal;HPM_P1;HPM_P2
2024/01/09 00:01:43;;;;;;;12.32;10.02;;;1.70;99.90;;;;;;5052026;28;20048;-80
2024/01/09 00:04:11;;;;;;;10.93;9.00;;;1.70;99.90;;;;;;5052064;28;20112;-81
2024/01/09 00:06:39;;;;;;;12.70;10.13;;;1.90;99.90;;;;;;5052139;28;20479;-80
2024/01/09 00:09:06;;;;;;;10.57;9.05;;;1.80;99.90;;;;;;5051450;28;20033;-79
2024/01/09 00:11:33;;;;;;;12.02;9.82;;;1.60;99.90;;;;;;5051825;28;20126;-75
2024/01/09 00:14:01;;;;;;;11.38;8.85;;;1.70;99.90;;;;;;5051713;28;20043;-80
2024/01/09 00:16:28;;;;;;;10.90;9.57;;;1.60;99.90;;;;;;5051790;28;20775;-78
2024/01/09 00:18:55;;;;;;;14.65;9.93;;;1.60;99.90;;;;;;5048537;28;20064;-79
2024/01/09 00:21:23;;;;;;;11.80;8.85;;;1.50;99.90;;;;;;5033616;28;20045;-73
2024/01/09 00:23:50;;;;;;;10.63;9.32;;;1.50;99.90;;;;;;5051967;28;20040;-79
2024/01/09 00:26:20;;;;;;;11.85;9.13;;;1.50;99.90;;;;;;5028960;28;20124;-79
2024/01/09 00:28:47;;;;;;;13.02;10.45;;;1.60;99.90;;;;;;5043711;28;20044;-77
2024/01/09 00:31:14;;;;;;;11.00;8.60;;;1.60;99.90;;;;;;5051062;28;20415;-79
2024/01/09 00:33:42;;;;;;;10.68;8.52;;;1.50;99.90;;;;;;5050641;28;20033;-78
2024/01/09 00:36:12;;;;;;;12.15;9.07;;;1.60;99.90;;;;;;5048594;28;20102;-74
2024/01/09 00:38:40;;;;;;;10.45;9.13;;;1.60;99.90;;;;;;5044476;28;20030;-74
2024/01/09 00:41:07;;;;;;;12.10;8.70;;;1.60;99.90;;;;;;5050443;28;20041;-74
2024/01/09 00:43:52;;;;;;;11.52;9.00;;;1.60;99.90;;;;;;5045836;28;20017;-75
2024/01/09 00:46:19;;;;;;;11.82;9.57;;;1.70;99.90;;;;;;5046012;28;20440;-74
2024/01/09 00:48:47;;;;;;;12.75;9.23;;;1.80;99.90;;;;;;5052994;28;20058;-76
2024/01/09 00:51:15;;;;;;;11.48;8.93;;;1.80;99.90;;;;;;5052670;28;20040;-76
2024/01/09 00:53:42;;;;;;;11.23;9.30;;;1.90;99.90;;;;;;5050908;28;20377;-77
2024/01/09 00:56:09;;;;;;;11.55;8.73;;;2.00;99.90;;;;;;5049913;28;20039;-76
2024/01/09 00:58:37;;;;;;;11.90;9.68;;;2.00;99.90;;;;;;5051035;28;20043;-76
2024/01/09 01:01:04;;;;;;;11.50;9.25;;;1.90;99.90;;;;;;5050765;28;20743;-77
2024/01/09 01:03:32;;;;;;;12.48;9.30;;;1.90;99.90;;;;;;5044762;28;20468;-77
2024/01/09 01:05:59;;;;;;;11.38;9.15;;;1.90;99.90;;;;;;5045320;28;20038;-78
2024/01/09 01:08:26;;;;;;;11.88;9.70;;;1.90;99.90;;;;;;5048205;28;20072;-78
2024/01/09 01:10:54;;;;;;;10.90;9.07;;;1.80;99.90;;;;;;5040673;28;20049;-79
2024/01/09 01:13:21;;;;;;;10.77;8.90;;;1.80;99.90;;;;;;5029326;28;20033;-78
2024/01/09 01:15:48;;;;;;;11.07;8.90;;;2.00;99.90;;;;;;5029594;28;20373;-79
2024/01/09 01:18:15;;;;;;;11.88;9.48;;;1.90;99.90;;;;;;5030384;28;20038;-78
2024/01/09 01:20:43;;;;;;;12.98;9.75;;;1.90;99.90;;;;;;5029074;28;20040;-77
2024/01/09 01:23:11;;;;;;;12.43;8.60;;;1.90;99.90;;;;;;5028272;28;20056;-76
2024/01/09 01:25:38;;;;;;;12.00;8.48;;;2.00;99.90;;;;;;5030845;28;20026;-78
2024/01/09 01:28:05;;;;;;;11.65;8.32;;;2.00;99.90;;;;;;5029492;28;20037;-78
2024/01/09 01:30:33;;;;;;;11.23;8.73;;;1.90;99.90;;;;;;5024517;28;20038;-75
2024/01/09 01:33:00;;;;;;;11.75;8.38;;;1.90;99.90;;;;;;5024766;28;20068;-76
2024/01/09 01:35:28;;;;;;;10.23;9.05;;;2.00;99.90;;;;;;5028855;28;20092;-78
2024/01/09 01:37:55;;;;;;;10.82;8.70;;;2.00;99.90;;;;;;5029280;28;20571;-77
2024/01/09 01:40:22;;;;;;;10.95;9.02;;;2.00;99.90;;;;;;5027318;28;20147;-77
2024/01/09 01:42:50;;;;;;;12.13;9.38;;;2.20;99.90;;;;;;5028430;28;20048;-77
2024/01/09 01:45:22;;;;;;;11.63;8.88;;;2.00;99.90;;;;;;5021952;28;20029;-80
2024/01/09 01:47:49;;;;;;;11.63;9.13;;;1.90;99.90;;;;;;5014079;28;20128;-80
2024/01/09 01:50:17;;;;;;;11.18;8.02;;;1.90;99.90;;;;;;5030111;28;20038;-78
2024/01/09 01:52:46;;;;;;;11.88;9.30;;;1.90;99.90;;;;;;5022166;28;20399;-79
2024/01/09 01:55:17;;;;;;;9.77;8.75;;;1.80;99.90;;;;;;5030377;28;20041;-79
2024/01/09 01:57:47;;;;;;;11.27;8.55;;;1.90;99.90;;;;;;5029326;28;20052;-80
2024/01/09 02:00:16;;;;;;;9.35;8.27;;;1.90;99.90;;;;;;5011118;28;20172;-80
2024/01/09 02:02:46;;;;;;;9.68;8.63;;;1.80;99.90;;;;;;5029506;28;20057;-80
2024/01/09 02:05:14;;;;;;;11.50;8.82;;;1.90;99.90;;;;;;5028064;28;20037;-80
2024/01/09 02:07:45;;;;;;;12.80;8.10;;;1.90;99.90;;;;;;5026641;28;20108;-76
2024/01/09 02:10:14;;;;;;;12.80;8.63;;;1.80;99.90;;;;;;5034996;28;20049;-80
2024/01/09 02:12:42;;;;;;;9.57;8.55;;;1.90;99.90;;;;;;5046754;28;20041;-81
2024/01/09 02:15:10;;;;;;;11.93;9.00;;;2.00;99.90;;;;;;5047594;28;20045;-82
2024/01/09 02:17:38;;;;;;;10.68;8.73;;;1.90;99.90;;;;;;5045618;28;20357;-79
2024/01/09 02:20:07;;;;;;;11.48;8.52;;;2.00;99.90;;;;;;5043699;28;20029;-81
2024/01/09 02:22:35;;;;;;;9.18;8.20;;;2.00;99.90;;;;;;5048165;28;20408;-77
2024/01/09 02:25:05;;;;;;;11.73;8.27;;;1.80;99.90;;;;;;5044623;28;20029;-80
2024/01/09 02:27:38;;;;;;;;;;;1.90;99.90;;;;;;5047246;28;20047;-80
2024/01/09 02:30:06;;;;;;;10.10;8.98;;;1.90;99.90;;;;;;5047299;28;19962;-76
2024/01/09 02:32:35;;;;;;;10.30;8.00;;;1.90;99.90;;;;;;5048896;28;20127;-79
2024/01/09 02:35:02;;;;;;;12.15;8.60;;;1.90;99.90;;;;;;5046966;28;20033;-76
2024/01/09 02:37:29;;;;;;;11.88;8.90;;;1.90;99.90;;;;;;5028590;28;20037;-78
2024/01/09 02:40:00;;;;;;;12.00;9.30;;;1.80;99.90;;;;;;5049510;28;20048;-77
2024/01/09 02:42:27;;;;;;;9.65;7.78;;;1.80;99.90;;;;;;5037718;28;20456;-78
2024/01/09 02:44:55;;;;;;;9.77;7.75;;;1.80;99.90;;;;;;5045878;28;20779;-77
2024/01/09 02:47:23;;;;;;;9.38;7.95;;;1.70;99.90;;;;;;5033815;28;20041;-75
2024/01/09 02:49:51;;;;;;;9.43;8.43;;;1.70;99.90;;;;;;5050019;28;20044;-78
2024/01/09 02:52:18;;;;;;;10.30;8.55;;;1.80;99.90;;;;;;5049125;28;20033;-76
2024/01/09 02:54:46;;;;;;;7.85;7.05;;;1.90;99.90;;;;;;5049523;28;20041;-78
2024/01/09 02:57:13;;;;;;;10.25;8.55;;;1.80;99.90;;;;;;5051021;28;20088;-76
2024/01/09 02:59:40;;;;;;;8.55;7.72;;;1.80;99.90;;;;;;5047476;28;20392;-75
2024/01/09 03:02:07;;;;;;;10.27;8.35;;;1.80;99.90;;;;;;5048343;28;20418;-78
2024/01/09 03:04:35;;;;;;;8.98;7.47;;;1.80;99.90;;;;;;5048999;28;20090;-78
2024/01/09 03:07:02;;;;;;;10.38;7.70;;;1.80;99.90;;;;;;5047081;28;20067;-77
2024/01/09 03:09:31;;;;;;;10.63;8.18;;;1.90;99.90;;;;;;5049085;28;20033;-78
2024/01/09 03:11:58;;;;;;;10.32;7.38;;;1.90;99.90;;;;;;5032804;28;20209;-78
2024/01/09 03:14:26;;;;;;;9.35;8.38;;;1.80;99.90;;;;;;5020944;28;20044;-76
2024/01/09 03:16:53;;;;;;;9.32;8.32;;;1.80;99.90;;;;;;5034470;28;20096;-76
2024/01/09 03:19:20;;;;;;;9.30;8.05;;;1.80;99.90;;;;;;5037575;28;20026;-76
2024/01/09 03:21:48;;;;;;;9.60;7.82;;;1.80;99.90;;;;;;5041750;28;20041;-79
2024/01/09 03:24:16;;;;;;;8.68;7.78;;;1.90;99.90;;;;;;5040807;28;20040;-76
2024/01/09 03:26:44;;;;;;;10.60;8.57;;;1.90;99.90;;;;;;5034123;28;20038;-78
2024/01/09 03:29:11;;;;;;;11.13;8.48;;;1.90;99.90;;;;;;5039715;28;20041;-79
2024/01/09 03:31:38;;;;;;;10.18;8.15;;;2.00;99.90;;;;;;5034700;28;20427;-77
2024/01/09 03:34:05;;;;;;;9.40;8.35;;;2.00;99.90;;;;;;5039754;28;20037;-81
2024/01/09 03:36:34;;;;;;;8.65;7.72;;;2.00;99.90;;;;;;5040093;28;20443;-81
2024/01/09 03:39:03;;;;;;;10.80;8.25;;;2.00;99.90;;;;;;5032794;28;20376;-80
2024/01/09 03:41:34;;;;;;;9.48;8.40;;;1.90;99.90;;;;;;5012190;28;20049;-79
2024/01/09 03:44:01;;;;;;;11.52;8.57;;;1.90;99.90;;;;;;5039205;28;20040;-78
2024/01/09 03:46:28;;;;;;;11.80;8.50;;;1.80;99.90;;;;;;5044371;28;20038;-78
2024/01/09 03:48:56;;;;;;;8.98;8.02;;;1.70;99.90;;;;;;5039827;28;20040;-76
2024/01/09 03:51:23;;;;;;;7.38;6.53;;;1.70;99.90;;;;;;5025551;28;20045;-80
2024/01/09 03:53:51;;;;;;;10.50;8.35;;;1.70;99.90;;;;;;5041743;28;20044;-81
2024/01/09 03:56:18;;;;;;;9.30;7.30;;;1.80;99.90;;;;;;5034155;28;20143;-80
2024/01/09 03:58:45;;;;;;;9.98;7.88;;;1.60;99.90;;;;;;5040030;28;20069;-81
2024/01/09 04:01:12;;;;;;;10.73;8.73;;;1.60;99.90;;;;;;5040497;28;20044;-77
2024/01/09 04:03:41;;;;;;;11.43;8.35;;;1.70;99.90;;;;;;5043445;28;20047;-80
2024/01/09 04:06:08;;;;;;;8.55;7.72;;;1.70;99.90;;;;;;5037473;28;20108;-80
2024/01/09 04:08:35;;;;;;;10.63;8.05;;;1.80;99.90;;;;;;5042798;28;20423;-79
2024/01/09 04:11:04;;;;;;;9.75;7.68;;;1.70;99.90;;;;;;5051767;28;20037;-79
2024/01/09 04:13:31;;;;;;;9.20;8.10;;;1.70;99.90;;;;;;5049527;28;20131;-76
2024/01/09 04:15:58;;;;;;;11.40;7.53;;;1.70;99.90;;;;;;5052494;28;20037;-78
2024/01/09 04:18:28;;;;;;;10.30;8.45;;;1.70;99.90;;;;;;5031695;28;20041;-76
2024/01/09 04:20:55;;;;;;;12.10;8.45;;;1.60;99.90;;;;;;5044806;28;20032;-78
2024/01/09 04:23:23;;;;;;;11.30;8.32;;;1.70;99.90;;;;;;5048805;28;20472;-79
2024/01/09 04:25:51;;;;;;;10.52;8.52;;;1.60;99.90;;;;;;5064588;28;20046;-81
2024/01/09 04:28:18;;;;;;;9.02;8.10;;;1.60;99.90;;;;;;5046371;28;20090;-76
2024/01/09 04:30:45;;;;;;;8.80;7.90;;;1.60;99.90;;;;;;5049755;28;20056;-81
2024/01/09 04:33:13;;;;;;;9.98;8.25;;;1.60;99.90;;;;;;5050008;28;20049;-74
2024/01/09 04:35:40;;;;;;;7.75;6.40;;;1.50;99.90;;;;;;5050779;28;20044;-75
2024/01/09 04:38:08;;;;;;;12.00;7.22;;;1.50;99.90;;;;;;5049830;28;20132;-77
2024/01/09 04:40:35;;;;;;;9.82;8.05;;;1.60;99.90;;;;;;5028184;28;20124;-80
2024/01/09 04:43:02;;;;;;;14.43;9.40;;;1.50;99.90;;;;;;5046615;28;20028;-77
2024/01/09 04:45:29;;;;;;;12.90;8.98;;;1.60;99.90;;;;;;5051104;28;20083;-79
2024/01/09 04:47:57;;;;;;;8.82;7.78;;;1.60;99.90;;;;;;5047597;28;20225;-75
2024/01/09 04:50:24;;;;;;;9.30;7.75;;;1.60;99.90;;;;;;5051972;28;20037;-78
2024/01/09 04:52:51;;;;;;;12.00;9.02;;;1.60;99.90;;;;;;5055077;28;20036;-76
2024/01/09 04:55:19;;;;;;;10.60;8.65;;;1.50;99.90;;;;;;5051656;28;20384;-77
2024/01/09 04:57:46;;;;;;;12.23;9.25;;;1.50;99.90;;;;;;5052629;28;20060;-79
2024/01/09 05:00:14;;;;;;;9.98;8.20;;;1.50;99.90;;;;;;5050883;28;20029;-73
2024/01/09 05:02:41;;;;;;;10.55;8.80;;;1.50;99.90;;;;;;5047811;28;20068;-75
2024/01/09 05:05:08;;;;;;;11.50;8.60;;;1.50;99.90;;;;;;5027281;28;20026;-76
2024/01/09 05:07:36;;;;;;;9.68;7.47;;;1.50;99.90;;;;;;5049782;28;20043;-80
2024/01/09 05:10:04;;;;;;;9.75;8.32;;;1.40;99.90;;;;;;5050176;28;20376;-77
2024/01/09 05:12:31;;;;;;;10.13;9.02;;;1.60;99.90;;;;;;5050971;28;20040;-76
2024/01/09 05:14:58;;;;;;;13.48;9.15;;;1.60;99.90;;;;;;5049273;28;20116;-78
2024/01/09 05:17:26;;;;;;;14.15;9.60;;;1.60;99.90;;;;;;5033517;28;20041;-76
2024/01/09 05:19:53;;;;;;;9.70;8.02;;;1.50;99.90;;;;;;5050131;28;20060;-80
2024/01/09 05:22:25;;;;;;;7.13;6.40;;;1.50;99.90;;;;;;5051167;28;20484;-82
2024/01/09 05:24:52;;;;;;;9.43;7.60;;;1.50;99.90;;;;;;5032562;28;20032;-79
2024/01/09 05:27:20;;;;;;;8.27;7.22;;;1.50;99.90;;;;;;5051230;28;20049;-77
2024/01/09 05:29:47;;;;;;;12.82;9.10;;;1.50;99.90;;;;;;5048216;28;20429;-78
2024/01/09 05:32:15;;;;;;;8.60;7.43;;;1.50;99.90;;;;;;5044009;28;20354;-77
2024/01/09 05:34:42;;;;;;;11.18;8.32;;;1.50;99.90;;;;;;5049667;28;20052;-78
2024/01/09 05:37:09;;;;;;;7.90;6.93;;;1.40;99.90;;;;;;5047587;28;20061;-76
2024/01/09 05:39:37;;;;;;;11.07;7.55;;;1.40;99.90;;;;;;5050515;28;20047;-76
2024/01/09 05:42:04;;;;;;;8.50;7.07;;;1.40;99.90;;;;;;5050673;28;20412;-77
2024/01/09 05:44:31;;;;;;;8.52;7.55;;;1.50;99.90;;;;;;5015682;28;20041;-79
2024/01/09 05:46:58;;;;;;;11.10;8.43;;;1.50;99.90;;;;;;5042679;28;20041;-79
2024/01/09 05:49:26;;;;;;;9.88;7.90;;;1.50;99.90;;;;;;5052165;28;20072;-76
2024/01/09 05:51:53;;;;;;;9.63;8.05;;;1.50;99.90;;;;;;5041363;28;20064;-78
2024/01/09 05:54:21;;;;;;;11.57;8.52;;;1.50;99.90;;;;;;5050099;28;20048;-77
2024/01/09 05:56:48;;;;;;;11.23;8.35;;;1.50;99.90;;;;;;5049409;28;20373;-78
2024/01/09 05:59:16;;;;;;;10.18;8.70;;;1.50;99.90;;;;;;5049711;28;20044;-79
2024/01/09 06:01:43;;;;;;;12.10;9.45;;;1.40;99.90;;;;;;5049498;28;20041;-81
2024/01/09 06:04:10;;;;;;;12.30;9.80;;;1.40;99.90;;;;;;5048792;28;20036;-78
2024/01/09 06:06:37;;;;;;;11.32;9.45;;;1.30;99.90;;;;;;5049278;28;20524;-79
2024/01/09 06:09:05;;;;;;;12.10;9.05;;;1.40;99.90;;;;;;5047599;28;20106;-76
2024/01/09 06:11:32;;;;;;;13.38;8.32;;;1.30;99.90;;;;;;5017781;28;20362;-78
2024/01/09 06:14:00;;;;;;;9.10;8.10;;;1.20;99.90;;;;;;5020509;28;20087;-76
2024/01/09 06:16:27;;;;;;;8.80;7.32;;;1.20;99.90;;;;;;5025748;28;20059;-79
2024/01/09 06:18:54;;;;;;;10.50;8.38;;;1.20;99.90;;;;;;5029347;28;20038;-79
2024/01/09 06:21:22;;;;;;;12.30;8.88;;;1.30;99.90;;;;;;5028568;28;20033;-76
2024/01/09 06:23:49;;;;;;;10.20;8.70;;;1.30;99.90;;;;;;5021267;28;20033;-78
2024/01/09 06:26:16;;;;;;;13.32;9.65;;;1.20;99.90;;;;;;5027628;28;20858;-77
2024/01/09 06:28:44;;;;;;;15.13;10.93;;;1.30;99.90;;;;;;5027074;28;20519;-81
2024/01/09 06:31:11;;;;;;;16.20;10.93;;;1.30;99.90;;;;;;5026971;28;20041;-77
2024/01/09 06:33:38;;;;;;;23.75;15.18;;;1.40;99.90;;;;;;5021467;28;20038;-77
2024/01/09 06:36:06;;;;;;;22.17;14.52;;;1.60;99.90;;;;;;5022734;28;21325;-77
2024/01/09 06:38:33;;;;;;;16.92;12.57;;;1.60;99.90;;;;;;5028618;28;20041;-78
2024/01/09 06:41:01;;;;;;;11.60;9.68;;;1.70;99.90;;;;;;5025696;28;20442;-81
2024/01/09 06:43:28;;;;;;;9.98;8.48;;;1.60;99.90;;;;;;5030305;28;20048;-82
2024/01/09 06:45:55;;;;;;;7.95;7.15;;;1.50;99.90;;;;;;5005925;28;20045;-81
2024/01/09 06:48:23;;;;;;;12.68;9.38;;;1.30;99.90;;;;;;5028980;28;20061;-83
2024/01/09 06:50:51;;;;;;;10.23;8.88;;;1.40;99.90;;;;;;5028682;28;20057;-80
2024/01/09 06:53:19;;;;;;;10.55;7.75;;;1.30;99.90;;;;;;5027393;28;20108;-87
2024/01/09 06:55:46;;;;;;;12.60;9.02;;;1.20;99.90;;;;;;5033649;28;20038;-80
2024/01/09 06:58:16;;;;;;;12.27;8.38;;;1.20;99.90;;;;;;5016755;28;20040;-78
2024/01/09 07:00:44;;;;;;;8.70;7.80;;;1.20;99.90;;;;;;5029114;28;20371;-80
2024/01/09 07:03:11;;;;;;;8.73;7.55;;;1.10;99.90;;;;;;5033895;28;20029;-85
2024/01/09 07:05:38;;;;;;;9.90;8.13;;;1.10;99.90;;;;;;5032127;28;20032;-81
2024/01/09 07:08:06;;;;;;;10.77;8.55;;;1.20;99.90;;;;;;5013335;28;20056;-83
2024/01/09 07:10:34;;;;;;;12.75;8.68;;;1.20;99.90;;;;;;5033555;28;20041;-81
2024/01/09 07:13:01;;;;;;;10.70;8.65;;;1.50;99.90;;;;;;5030799;28;20045;-80
2024/01/09 07:15:31;;;;;;;14.27;7.03;;;1.70;99.90;;;;;;5047809;28;20044;-72
2024/01/09 07:17:58;;;;;;;8.57;7.70;;;1.60;99.90;;;;;;5050614;28;20041;-75
2024/01/09 07:20:26;;;;;;;8.40;7.50;;;1.30;99.90;;;;;;5054331;28;20033;-85
2024/01/09 07:22:54;;;;;;;9.63;7.90;;;1.10;99.90;;;;;;5053022;28;20041;-79
2024/01/09 07:25:35;;;;;;;12.70;8.65;;;1.10;99.90;;;;;;5053197;28;20527;-73
2024/01/09 07:28:02;;;;;;;9.35;8.43;;;1.30;99.90;;;;;;5052794;28;20492;-83
2024/01/09 07:30:30;;;;;;;9.60;8.10;;;1.20;99.90;;;;;;5035934;28;20128;-87
2024/01/09 07:32:57;;;;;;;10.57;8.63;;;1.30;99.90;;;;;;5052846;28;20029;-77
2024/01/09 07:35:24;;;;;;;12.38;9.00;;;1.30;99.90;;;;;;5053229;28;20272;-90
2024/01/09 07:37:52;;;;;;;10.65;8.10;;;1.20;99.90;;;;;;5046263;28;20450;-81
2024/01/09 07:40:19;;;;;;;13.25;7.88;;;1.30;99.90;;;;;;5051071;28;20052;-78
2024/01/09 07:42:46;;;;;;;11.70;8.68;;;1.30;99.90;;;;;;5050830;28;20412;-87
2024/01/09 07:45:28;;;;;;;8.88;7.30;;;1.30;99.90;;;;;;5050484;28;20041;-87
2024/01/09 07:47:59;;;;;;;10.18;8.05;;;1.20;99.90;;;;;;5051858;28;20037;-88
2024/01/09 07:50:27;;;;;;;8.80;7.70;;;1.20;99.90;;;;;;5052841;28;20047;-82
2024/01/09 07:52:54;;;;;;;8.63;7.55;;;1.20;99.90;;;;;;5051222;28;20108;-85
2024/01/09 07:55:21;;;;;;;10.43;9.10;;;1.10;99.90;;;;;;5054134;28;20051;-85
2024/01/09 07:57:49;;;;;;;11.35;8.63;;;1.20;99.90;;;;;;5053259;28;20093;-87
2024/01/09 08:00:16;;;;;;;9.98;8.13;;;1.30;99.90;;;;;;5054607;28;20190;-79
2024/01/09 08:02:44;;;;;;;11.27;8.48;;;1.30;99.90;;;;;;5054165;28;20388;-84
2024/01/09 08:05:11;;;;;;;11.98;7.95;;;1.20;99.90;;;;;;5036835;28;20071;-86
2024/01/09 08:07:39;;;;;;;12.45;7.65;;;;;;;;;;5050687;28;20033;-88
2024/01/09 08:10:06;;;;;;;9.65;8.20;;;1.20;99.90;;;;;;5053015;28;20447;-89
2024/01/09 08:12:34;;;;;;;11.40;8.35;;;1.30;99.90;;;;;;5053872;28;20354;-85
2024/01/09 08:15:01;;;;;;;10.40;8.65;;;1.30;99.90;;;;;;5053310;28;20115;-89
2024/01/09 08:17:29;;;;;;;12.75;7.72;;;;;;;;;;5037310;28;20078;-88
2024/01/09 08:19:56;;;;;;;11.00;8.73;;;1.40;99.90;;;;;;5053842;28;20037;-91
2024/01/09 08:22:24;;;;;;;11.05;8.55;;;1.40;99.90;;;;;;5053011;28;20029;-88
2024/01/09 08:24:51;;;;;;;9.27;7.20;;;1.50;99.90;;;;;;5050909;28;20037;-75
2024/01/09 08:27:19;;;;;;;9.50;8.20;;;1.50;99.90;;;;;;5052744;28;20055;-74
2024/01/09 08:29:46;;;;;;;10.73;8.20;;;1.50;99.90;;;;;;5052852;28;20048;-87
2024/01/09 08:32:15;;;;;;;11.32;8.65;;;1.60;99.90;;;;;;5035983;28;20026;-75
2024/01/09 08:34:43;;;;;;;8.18;7.35;;;1.60;99.90;;;;;;5052326;28;20037;-82
2024/01/09 08:37:10;;;;;;;10.20;7.80;;;1.70;99.90;;;;;;5049905;28;20064;-73
2024/01/09 08:39:38;;;;;;;8.90;7.25;;;;;;;;;;5031009;28;20045;-89
2024/01/09 08:42:06;;;;;;;9.80;8.80;;;1.60;99.90;;;;;;5052474;28;20094;-77
2024/01/09 08:44:34;;;;;;;11.73;8.18;;;1.60;99.90;;;;;;5052852;28;20059;-77
2024/01/09 08:47:01;;;;;;;7.97;7.18;;;1.70;99.90;;;;;;5052365;28;20043;-79
2024/01/09 08:49:46;;;;;;;8.90;7.40;;;1.50;99.90;;;;;;5047460;28;20021;-79
2024/01/09 08:52:13;;;;;;;10.20;7.32;;;1.40;99.90;;;;;;5053096;28;20426;-78
2024/01/09 08:54:40;;;;;;;10.02;8.05;;;1.40;99.90;;;;;;5045040;28;20037;-86
2024/01/09 08:57:07;;;;;;;11.38;7.47;;;1.30;99.90;;;;;;5047400;28;20115;-87
2024/01/09 08:59:35;;;;;;;9.18;7.53;;;1.50;99.90;;;;;;5031408;28;20468;-75
2024/01/09 09:02:02;;;;;;;9.45;8.35;;;1.40;99.90;;;;;;5049027;28;20041;-75
2024/01/09 09:04:29;;;;;;;10.60;8.23;;;1.40;99.90;;;;;;5050999;28;20040;-85
2024/01/09 09:06:57;;;;;;;9.32;8.13;;;;;;;;;;5049495;28;20122;-81
2024/01/09 09:09:25;;;;;;;12.00;8.65;;;;;;;;;;5044828;28;20037;-85
2024/01/09 09:11:52;;;;;;;9.75;8.57;;;1.40;99.90;;;;;;5049315;28;20128;-76
2024/01/09 09:14:19;;;;;;;10.70;8.43;;;1.40;99.90;;;;;;5049841;28;20033;-81
2024/01/09 09:16:46;;;;;;;11.45;8.82;;;1.50;99.90;;;;;;5045534;28;20051;-83
2024/01/09 09:19:14;;;;;;;13.70;8.90;;;1.70;99.90;;;;;;5050613;28;20358;-85
2024/01/09 09:21:41;;;;;;;10.65;8.40;;;;;;;;;;5048615;28;20036;-81
2024/01/09 09:24:09;;;;;;;12.88;9.10;;;1.40;99.90;;;;;;5042432;28;20128;-83
2024/01/09 09:26:36;;;;;;;11.82;9.00;;;1.40;99.90;;;;;;5044480;28;20108;-82
2024/01/09 09:29:04;;;;;;;11.40;8.15;;;1.40;99.90;;;;;;5050977;28;20375;-88
2024/01/09 09:31:45;;;;;;;13.43;8.63;;;1.40;99.90;;;;;;5044049;28;20443;-83
2024/01/09 09:34:13;;;;;;;10.10;6.68;;;1.40;99.90;;;;;;5047591;28;20060;-85
2024/01/09 09:36:40;;;;;;;8.77;7.63;;;1.40;99.90;;;;;;5043925;28;20091;-88
2024/01/09 09:39:07;;;;;;;8.23;7.32;;;1.40;99.90;;;;;;5033802;28;20043;-82
2024/01/09 09:41:36;;;;;;;8.98;7.97;;;1.40;99.90;;;;;;5051341;28;20040;-88
2024/01/09 09:44:07;;;;;;;9.18;8.23;;;1.30;99.90;;;;;;5049356;28;20395;-85
2024/01/09 09:46:36;;;;;;;11.45;7.70;;;1.40;99.90;;;;;;5051302;28;20582;-87
2024/01/09 09:49:04;;;;;;;10.70;7.90;;;1.50;99.90;;;;;;5051121;28;20064;-86
2024/01/09 09:51:32;;;;;;;9.63;7.95;;;1.50;99.90;;;;;;5051666;28;20048;-86
2024/01/09 09:54:03;;;;;;;12.65;9.13;;;1.40;99.90;;;;;;5050987;28;20032;-88
2024/01/09 09:56:31;;;;;;;11.18;8.50;;;1.50;99.90;;;;;;5051481;28;20033;-78
2024/01/09 09:58:59;;;;;;;9.85;8.27;;;1.50;99.90;;;;;;5046497;28;20033;-81
2024/01/09 10:01:28;;;;;;;9.45;8.07;;;1.40;99.90;;;;;;5047326;28;20067;-85
2024/01/09 10:03:59;;;;;;;14.77;8.45;;;1.40;99.90;;;;;;5048429;28;20060;-84
2024/01/09 10:06:28;;;;;;;11.10;8.23;;;1.50;99.90;;;;;;5050477;28;20033;-88
2024/01/09 10:08:56;;;;;;;12.98;9.25;;;1.40;99.90;;;;;;5051158;28;20041;-87
2024/01/09 10:11:24;;;;;;;10.15;7.35;;;1.50;99.90;;;;;;5049123;28;20186;-87
2024/01/09 10:13:52;;;;;;;12.63;8.77;;;1.50;99.90;;;;;;5045824;28;20040;-78
2024/01/09 10:16:19;;;;;;;11.10;9.18;;;1.40;99.90;;;;;;5046084;28;20051;-88
2024/01/09 10:18:47;;;;;;;10.23;8.55;;;1.50;99.90;;;;;;5031695;28;20084;-77
2024/01/09 10:21:14;;;;;;;12.60;8.68;;;1.60;99.90;;;;;;5051379;28;20033;-86
2024/01/09 10:23:42;;;;;;;9.43;8.50;;;1.50;99.90;;;;;;5029903;28;20123;-79
2024/01/09 10:26:11;;;;;;;9.82;7.82;;;1.50;99.90;;;;;;5046233;28;20380;-79
2024/01/09 10:28:38;;;;;;;18.20;9.75;;;1.40;99.90;;;;;;5048111;28;20040;-83
2024/01/09 10:31:07;;;;;;;9.60;8.25;;;1.50;99.90;;;;;;5029795;28;20033;-87
2024/01/09 10:33:42;;;;;;;7.18;6.45;;;1.50;99.90;;;;;;5026280;28;20476;-86
2024/01/09 10:36:10;;;;;;;10.02;7.65;;;1.40;99.90;;;;;;5044199;28;20524;-82
2024/01/09 10:38:38;;;;;;;6.95;6.25;;;1.50;99.90;;;;;;5048073;28;20041;-86
2024/01/09 10:41:21;;;;;;;12.38;9.90;;;1.40;99.90;;;;;;5048246;28;20383;-88
2024/01/09 10:43:49;;;;;;;12.43;9.68;;;1.60;99.90;;;;;;5046223;28;20049;-87
2024/01/09 10:46:17;;;;;;;12.50;9.60;;;1.70;99.90;;;;;;5041630;28;20032;-80
2024/01/09 10:48:45;;;;;;;12.90;8.90;;;1.70;99.90;;;;;;5036110;28;20124;-78
2024/01/09 10:51:15;;;;;;;7.70;7.00;;;1.60;99.90;;;;;;5039831;28;20423;-76
2024/01/09 10:53:45;;;;;;;11.50;8.93;;;1.50;99.90;;;;;;5038890;28;20486;-79
2024/01/09 10:56:17;;;;;;;11.13;8.98;;;1.70;99.90;;;;;;5041544;28;20032;-78
2024/01/09 10:58:51;;;;;;;12.27;8.80;;;1.80;99.90;;;;;;5042150;28;20041;-82
2024/01/09 11:01:19;;;;;;;11.15;9.35;;;1.70;99.90;;;;;;5047400;28;20037;-89
2024/01/09 11:03:47;;;;;;;11.90;9.55;;;1.80;99.90;;;;;;5034682;28;20037;-81
2024/01/09 11:06:16;;;;;;;8.90;7.65;;;1.80;99.90;;;;;;5048736;28;20048;-85
2024/01/09 11:08:52;;;;;;;7.88;7.18;;;1.70;99.90;;;;;;5045688;28;20178;-83
2024/01/09 11:11:22;;;;;;;11.88;9.65;;;1.60;99.90;;;;;;5049567;28;20065;-87
2024/01/09 11:13:52;;;;;;;11.13;9.35;;;1.70;99.90;;;;;;5051205;28;20041;-76
2024/01/09 11:16:23;;;;;;;13.27;10.40;;;1.70;99.90;;;;;;5045388;28;20041;-84
2024/01/09 11:18:52;;;;;;;12.55;9.93;;;1.80;99.90;;;;;;5045267;28;20049;-81
2024/01/09 11:21:34;;;;;;;12.13;10.05;;;1.90;99.90;;;;;;5047821;28;20033;-82
2024/01/09 11:24:04;;;;;;;12.82;9.65;;;1.90;99.90;;;;;;5052827;28;20083;-78
2024/01/09 11:26:35;;;;;;;11.73;9.43;;;1.80;99.90;;;;;;5051562;28;20087;-84
2024/01/09 11:29:02;;;;;;;11.52;9.93;;;1.80;99.90;;;;;;5049044;28;20037;-72
2024/01/09 11:31:31;;;;;;;11.80;10.20;;;;;;;;;;5043150;28;20119;-88
2024/01/09 11:34:01;;;;;;;12.00;9.02;;;1.80;99.90;;;;;;5048816;28;20380;-74
2024/01/09 11:36:33;;;;;;;11.73;9.23;;;1.80;99.90;;;;;;5051025;28;20040;-79
2024/01/09 11:39:01;;;;;;;11.35;9.10;;;1.90;99.90;;;;;;5051921;28;20028;-90
2024/01/09 11:41:37;;;;;;;11.55;9.27;;;1.90;99.90;;;;;;5054624;28;20063;-79
2024/01/09 11:44:15;;;;;;;12.98;9.25;;;2.00;99.90;;;;;;5053986;28;20040;-74
2024/01/09 11:46:43;;;;;;;11.38;8.68;;;1.90;99.90;;;;;;5052974;28;20582;-76
2024/01/09 11:49:10;;;;;;;11.02;8.77;;;1.90;99.90;;;;;;5054461;28;20043;-83
2024/01/09 11:51:38;;;;;;;12.48;9.48;;;2.00;99.90;;;;;;5038125;28;20075;-89
2024/01/09 11:54:08;;;;;;;11.48;9.65;;;1.90;99.90;;;;;;5048207;28;20040;-77
2024/01/09 11:56:37;;;;;;;13.60;10.02;;;2.00;99.90;;;;;;5046004;28;20725;-80
2024/01/09 11:59:05;;;;;;;14.30;10.02;;;1.90;99.90;;;;;;5047320;28;20389;-87
2024/01/09 12:01:32;;;;;;;13.13;10.15;;;1.90;99.90;;;;;;5044327;28;20472;-78
2024/01/09 12:03:59;;;;;;;11.90;10.18;;;1.70;99.90;;;;;;5027123;28;20033;-79
2024/01/09 12:06:32;;;;;;;14.40;9.93;;;1.80;99.90;;;;;;5049563;28;20064;-82
2024/01/09 12:09:00;;;;;;;12.68;10.45;;;1.80;99.90;;;;;;5032600;28;20133;-82
2024/01/09 12:11:28;;;;;;;18.05;9.60;;;1.70;99.90;;;;;;5046016;28;20046;-88
2024/01/09 12:14:03;;;;;;;14.73;9.60;;;1.80;99.90;;;;;;5045424;28;20032;-84
2024/01/09 12:16:31;;;;;;;12.73;9.35;;;1.60;99.90;;;;;;5025023;28;20351;-75
2024/01/09 12:19:00;;;;;;;15.05;9.82;;;1.60;99.90;;;;;;5032462;28;20060;-91
2024/01/09 12:21:33;;;;;;;13.45;10.30;;;;;;;;;;5032309;28;20041;-90
2024/01/09 12:24:04;;;;;;;12.98;10.25;;;1.50;99.90;;;;;;5048017;28;20040;-77
2024/01/09 12:26:52;;;;;;;12.70;8.70;;;1.60;99.90;;;;;;5046694;28;20121;-80
2024/01/09 12:29:20;;;;;;;11.90;9.68;;;1.50;99.90;;;;;;5049284;28;20040;-80
2024/01/09 12:31:48;;;;;;;12.27;9.50;;;1.60;99.90;;;;;;5052345;28;20045;-86
2024/01/09 12:34:16;;;;;;;11.65;8.98;;;1.60;99.90;;;;;;5037953;28;20531;-80
2024/01/09 12:36:44;;;;;;;13.38;9.50;;;1.60;99.90;;;;;;5032115;28;20029;-83
2024/01/09 12:39:16;;;;;;;10.75;8.32;;;1.60;99.90;;;;;;5050623;28;20037;-84
2024/01/09 12:41:43;;;;;;;11.68;9.48;;;1.50;99.90;;;;;;5047315;28;20411;-84
2024/01/09 12:44:14;;;;;;;13.65;10.23;;;1.50;99.90;;;;;;5050263;28;20042;-85
2024/01/09 12:46:43;;;;;;;14.45;10.10;;;1.60;99.90;;;;;;5051550;28;20035;-89
2024/01/09 12:49:12;;;;;;;10.25;8.85;;;1.70;99.90;;;;;;5051001;28;20035;-84
2024/01/09 12:51:41;;;;;;;13.25;9.13;;;1.60;99.90;;;;;;5029147;28;20043;-78
2024/01/09 12:54:08;;;;;;;13.57;10.02;;;1.50;99.90;;;;;;5048326;28;20067;-84
2024/01/09 12:56:35;;;;;;;13.52;10.07;;;1.50;99.90;;;;;;5032789;28;20041;-78